ENNMENVA

Guest
Details From ENNM - Namsos
To ENVA - Vaernes
Flight Number -
Tags generated
Created
Modified
Stats Distance 63 nm / 118 km
Max Altitude 6,500 ft / 1,981 m
Waypoints 3
Social Downloads 2
Likes 0
Share VATSIM

Download

Looking for another format? Having issues loading an existing format? Contact us
Advertisement - Login to hide

Notes

Basic altitude profile: - Ascent Rate: 2500ft/min - Ascent Speed: 250kts - Cruise Altitude: 35000ft - Cruise Speed: 420kts - Descent Rate: 1500ft/min - Descent Speed: 250kts Options: - Use NATs: yes - Use PACOTS: yes - Use low airways: yes - Use high airways: yes

Route

ENNM NAMOX ENVA

ID Type Via Altitude Latitude Longitude Leg Dist Tot Dist Heading (true) Name
O ENNM APT - 0 ft / 0 m 64.47228˚ 11.57858˚ - 0 nm - Namsos
NAMOX FIX - 6,500 ft / 1,981 m 64.18611˚ 11.32111˚ 18 nm 18 nm 201° / 201° -
O ENVA APT - 0 ft / 0 m 63.45760˚ 10.91798˚ 45 nm 63 nm 194° / 194° Vaernes

Altitude Profile

Advertisement - Login to hide

ENNM

Details ICAO ENNM (OSY)
Name Namsos
Region Norway
Timezone Unknown (UTC+0.0)
Stats Elevation 7 ft / 2 m (AMSL)
Location 64.472282° 11.578579°
Runways 1
Magnetic Variation 3.897° E

METAR

ENNM 120620Z 06010KT 9999 BKN043 M10/M11 Q0996

Decode

TAF

Not found

Departure Runways

ID Width Length Bearing (true) Bearing (mag) Surface Threshold Offset Overrun Length
07 98 ft / 30 m 2,759 ft / 841 m 73.79° 69.89° Asphalt 0 ft / 0 m 0 ft / 0 m
25 98 ft / 30 m 2,759 ft / 841 m 253.81° 249.91° Asphalt 0 ft / 0 m 0 ft / 0 m

ENVA

Details ICAO ENVA (TRD)
Name Vaernes
Region Norway
Timezone Europe/Oslo (UTC+1.0)
Stats Elevation 56 ft / 17 m (AMSL)
Location 63.457605° 10.917980°
Runways 1
Magnetic Variation 3.494° E

METAR

ENVA 120620Z 11008KT 9999 BKN050 M09/M11 Q0997 NOSIG RMK WIND 670FT 15004KT

Decode

TAF

TAF ENVA 120500Z 1206/1306 12008KT 9999 SCT040 BECMG 1214/1216 4000 -SN TEMPO 1216/1306 2000 SHSN VV008 BECMG 1223/1302 24012KT

Decode

Destination Runways

ID Width Length Bearing (true) Bearing (mag) Surface Threshold Offset Overrun Length
09 148 ft / 45 m 9,356 ft / 2,852 m 90.21° 86.72° Asphalt 984 ft / 300 m 0 ft / 0 m
27 148 ft / 45 m 9,356 ft / 2,852 m 270.26° 266.77° Asphalt 689 ft / 210 m 0 ft / 0 m

Approach Navaids

Runway Type Ident Frequency Range Bearing (true) Bearing (mag) Slope Elevation
09 Localiser TO 110.30 MHz 18 nm / 33 km 90.26° 86.77° - 31 ft / 9 m (AMSL)
09 Glidescope TO 110.30 MHz 10 nm / 19 km 90.23° 86.74° 3.00° 56 ft / 17 m (AMSL)
09 DME TO 110.30 MHz 18 nm / 33 km - - - 31 ft / 9 m (AMSL)
27 Localiser TD 109.90 MHz 18 nm / 33 km 270.20° 266.71° - 56 ft / 17 m (AMSL)
27 Glidescope TD 109.90 MHz 10 nm / 19 km 270.23° 266.74° 3.40° 56 ft / 17 m (AMSL)
27 DME TD 109.90 MHz 18 nm / 33 km - - - 78 ft / 24 m (AMSL)